International Virtual Aviation Organisation

Eastern Europe and Northern Asia MCD

 
ULMM 201000Z 21004MPS 170V250 CAVOK 14/M10 Q1019 R13/090070 NOSIG RMK QFE757
QNH:(hPa/inHg/mmHg)1019 / 30.09 / 764
QFE:(hPa/inHg/mmHg)1009 / 29.80 / 757
Temperature14
Dew Point-10
Visibility> 10000
WeatherCAVOK
Cloud Cover
Transition Height900 m./3300 ft.
Transition LevelFL40
SQUAWK